VTK601 ULAM-UOOO
Flight info
| Callsign | VTK601 |
|---|---|
| Flight time | N/A |
| Altitude | 33000 |
| Route | GOSUR1E GOSUR M131 ULKAM M130 BI BI3E |
| Aircraft | MD83/M-SDFGIRWY/S |
Departure
| Time | 2026-04-29 11:21 |
|---|---|
| Airport | Naryan Mar Airport (ULAM) |
Arrival
| Time | N/A |
|---|---|
| Airport | Alykel International Airport (UOOO) |
| Time | Latitude | Longitude | Altitude | Speed | Heading |
|---|---|---|---|---|---|
| 2026-04-29 11:08 | 67.63523 | 53.08549 | 44 ft | 0 kts | 127° |
| 2026-04-29 11:17 | 67.63523 | 53.08550 | 44 ft | 0 kts | 127° |
| 2026-04-29 11:17 | 67.63521 | 53.08556 | 44 ft | 1 kts | 127° |
| 2026-04-29 11:18 | 67.63514 | 53.08589 | 43 ft | 3 kts | 114° |
| 2026-04-29 11:18 | 67.63514 | 53.08646 | 42 ft | 4 kts | 72° |
| 2026-04-29 11:18 | 67.63533 | 53.08713 | 44 ft | 6 kts | 47° |
| 2026-04-29 11:18 | 67.63564 | 53.08802 | 43 ft | 8 kts | 47° |
| 2026-04-29 11:19 | 67.63607 | 53.08904 | 44 ft | 9 kts | 32° |
| 2026-04-29 11:19 | 67.63670 | 53.08980 | 43 ft | 11 kts | 22° |
| 2026-04-29 11:19 | 67.63746 | 53.09052 | 44 ft | 12 kts | 19° |
| 2026-04-29 11:19 | 67.63821 | 53.09119 | 45 ft | 9 kts | 15° |
| 2026-04-29 11:20 | 67.63869 | 53.09188 | 46 ft | 8 kts | 60° |
| 2026-04-29 11:20 | 67.63878 | 53.09266 | 45 ft | 0 kts | 79° |
| 2026-04-29 11:20 | 67.63901 | 53.09667 | 45 ft | 53 kts | 82° |
| 2026-04-29 11:21 | 67.63980 | 53.11195 | 46 ft | 115 kts | 83° |
| 2026-04-29 11:21 | 67.64102 | 53.13742 | 49 ft | 164 kts | 85° |
| 2026-04-29 11:21 | 67.64249 | 53.16831 | 510 ft | 172 kts | 84° |
| 2026-04-29 11:21 | 67.64374 | 53.19540 | 1251 ft | 167 kts | 88° |
| 2026-04-29 11:22 | 67.64507 | 53.22830 | 1497 ft | 197 kts | 89° |
| 2026-04-29 11:22 | 67.64714 | 53.26495 | 1927 ft | 213 kts | 73° |
| 2026-04-29 11:22 | 67.65629 | 53.29743 | 2377 ft | 234 kts | 41° |
| 2026-04-29 11:22 | 67.66951 | 53.32491 | 2914 ft | 250 kts | 40° |
| 2026-04-29 11:23 | 67.68315 | 53.35525 | 3550 ft | 262 kts | 44° |
| 2026-04-29 11:23 | 67.69665 | 53.38855 | 4331 ft | 268 kts | 47° |
| 2026-04-29 11:23 | 67.70982 | 53.42334 | 5215 ft | 269 kts | 49° |
| 2026-04-29 11:23 | 67.72274 | 53.45962 | 6013 ft | 273 kts | 50° |
| 2026-04-29 11:24 | 67.73541 | 53.49738 | 6752 ft | 277 kts | 52° |
| 2026-04-29 11:24 | 67.74796 | 53.53637 | 7512 ft | 280 kts | 52° |
| 2026-04-29 11:24 | 67.76047 | 53.57621 | 8285 ft | 283 kts | 53° |
| 2026-04-29 11:24 | 67.77299 | 53.61696 | 9026 ft | 288 kts | 53° |
| 2026-04-29 11:25 | 67.78560 | 53.65844 | 9775 ft | 292 kts | 53° |
| 2026-04-29 11:25 | 67.79865 | 53.70166 | 10057 ft | 312 kts | 53° |
| 2026-04-29 11:25 | 67.81262 | 53.74821 | 10242 ft | 334 kts | 53° |
| 2026-04-29 11:25 | 67.82752 | 53.79773 | 10428 ft | 355 kts | 53° |
| 2026-04-29 11:26 | 67.85925 | 53.90303 | 11582 ft | 370 kts | 53° |
| 2026-04-29 11:26 | 67.87542 | 53.95642 | 12327 ft | 373 kts | 53° |
| 2026-04-29 11:26 | 67.89176 | 54.01037 | 13050 ft | 377 kts | 53° |
| 2026-04-29 11:27 | 67.90827 | 54.06500 | 13765 ft | 381 kts | 53° |
| 2026-04-29 11:27 | 67.92489 | 54.12027 | 14460 ft | 384 kts | 53° |
| 2026-04-29 11:27 | 67.94144 | 54.17633 | 15143 ft | 387 kts | 54° |
| 2026-04-29 11:27 | 67.95804 | 54.23305 | 15803 ft | 390 kts | 54° |
| 2026-04-29 11:28 | 67.96912 | 54.27097 | 16256 ft | 392 kts | 54° |
| 2026-04-29 11:28 | 67.98595 | 54.32848 | 16918 ft | 396 kts | 54° |
| 2026-04-29 11:28 | 68.00300 | 54.38663 | 17581 ft | 400 kts | 53° |
| 2026-04-29 11:28 | 68.02024 | 54.44532 | 18150 ft | 405 kts | 53° |
| 2026-04-29 11:29 | 68.03782 | 54.50509 | 18459 ft | 412 kts | 53° |
| 2026-04-29 11:29 | 68.05555 | 54.56539 | 18586 ft | 412 kts | 53° |
| 2026-04-29 11:29 | 68.07317 | 54.62526 | 18644 ft | 408 kts | 54° |
| 2026-04-29 11:29 | 68.09639 | 54.70426 | 18689 ft | 407 kts | 54° |
| 2026-04-29 11:30 | 68.10818 | 54.74456 | 18702 ft | 407 kts | 54° |
| 2026-04-29 11:30 | 68.12534 | 54.80334 | 18711 ft | 406 kts | 54° |
| 2026-04-29 11:30 | 68.14273 | 54.86307 | 18716 ft | 406 kts | 54° |
| 2026-04-29 11:30 | 68.16014 | 54.92300 | 18716 ft | 407 kts | 54° |
| 2026-04-29 11:31 | 68.17757 | 54.98299 | 18718 ft | 407 kts | 54° |
| 2026-04-29 11:31 | 68.19494 | 55.04327 | 18723 ft | 409 kts | 55° |
| 2026-04-29 11:31 | 68.21193 | 55.10553 | 19098 ft | 414 kts | 56° |
| 2026-04-29 11:31 | 68.22868 | 55.16842 | 19855 ft | 412 kts | 57° |
| 2026-04-29 11:32 | 68.24538 | 55.23127 | 20514 ft | 414 kts | 57° |
| 2026-04-29 11:32 | 68.26226 | 55.29442 | 21062 ft | 417 kts | 57° |
| 2026-04-29 11:32 | 68.27937 | 55.35805 | 21552 ft | 421 kts | 57° |
| 2026-04-29 11:32 | 68.29677 | 55.42228 | 22032 ft | 425 kts | 57° |
| 2026-04-29 11:33 | 68.31432 | 55.48700 | 22552 ft | 428 kts | 57° |
| 2026-04-29 11:33 | 68.33195 | 55.55215 | 23097 ft | 431 kts | 57° |
| 2026-04-29 11:33 | 68.34967 | 55.61781 | 23528 ft | 434 kts | 57° |
| 2026-04-29 11:33 | 68.36750 | 55.68408 | 23917 ft | 437 kts | 57° |
| 2026-04-29 11:34 | 68.38542 | 55.75087 | 24304 ft | 440 kts | 57° |
| 2026-04-29 11:34 | 68.40347 | 55.81823 | 24697 ft | 442 kts | 57° |
| 2026-04-29 11:34 | 68.42161 | 55.88598 | 25066 ft | 445 kts | 57° |
| 2026-04-29 11:34 | 68.43983 | 55.95421 | 25433 ft | 448 kts | 57° |
| 2026-04-29 11:35 | 68.45798 | 56.02344 | 25774 ft | 450 kts | 58° |
| 2026-04-29 11:35 | 68.47604 | 56.09331 | 26137 ft | 453 kts | 58° |
| 2026-04-29 11:35 | 68.49416 | 56.16332 | 26588 ft | 451 kts | 58° |
| 2026-04-29 11:35 | 68.51221 | 56.23299 | 27122 ft | 449 kts | 58° |
| 2026-04-29 11:36 | 68.53018 | 56.30234 | 27619 ft | 447 kts | 58° |
| 2026-04-29 11:36 | 68.54812 | 56.37159 | 28064 ft | 446 kts | 57° |
| 2026-04-29 11:36 | 68.56603 | 56.44072 | 28470 ft | 446 kts | 57° |
| 2026-04-29 11:36 | 68.58395 | 56.50993 | 28870 ft | 445 kts | 57° |
| 2026-04-29 11:37 | 68.60182 | 56.57899 | 29288 ft | 444 kts | 57° |
| 2026-04-29 11:37 | 68.61966 | 56.64800 | 29718 ft | 443 kts | 57° |
| 2026-04-29 11:37 | 68.63744 | 56.71694 | 30087 ft | 441 kts | 57° |
| 2026-04-29 11:37 | 68.65513 | 56.78574 | 30332 ft | 442 kts | 57° |
| 2026-04-29 11:38 | 68.67289 | 56.85496 | 30523 ft | 444 kts | 57° |
| 2026-04-29 11:38 | 68.69069 | 56.92431 | 30752 ft | 444 kts | 58° |
| 2026-04-29 11:38 | 68.70850 | 56.99361 | 31013 ft | 444 kts | 58° |
| 2026-04-29 11:38 | 68.72612 | 57.06333 | 31258 ft | 443 kts | 58° |
| 2026-04-29 11:39 | 68.74335 | 57.13380 | 31481 ft | 444 kts | 59° |
| 2026-04-29 11:39 | 68.76054 | 57.20458 | 31689 ft | 445 kts | 59° |
| 2026-04-29 11:39 | 68.77786 | 57.27533 | 31901 ft | 445 kts | 58° |
| 2026-04-29 11:39 | 68.79534 | 57.34609 | 32122 ft | 445 kts | 58° |
| 2026-04-29 11:40 | 68.81288 | 57.41658 | 32335 ft | 445 kts | 58° |
| 2026-04-29 11:40 | 68.83047 | 57.48706 | 32533 ft | 446 kts | 58° |
| 2026-04-29 11:40 | 68.84813 | 57.55783 | 32668 ft | 448 kts | 58° |
| 2026-04-29 11:40 | 68.86586 | 57.62906 | 32724 ft | 450 kts | 58° |
| 2026-04-29 11:41 | 68.90119 | 57.77140 | 32762 ft | 446 kts | 58° |
| 2026-04-29 11:41 | 68.93597 | 57.91202 | 32784 ft | 443 kts | 58° |
| 2026-04-29 11:42 | 68.97140 | 58.05257 | 32771 ft | 444 kts | 57° |
| 2026-04-29 11:42 | 69.00690 | 58.19361 | 32781 ft | 445 kts | 58° |
| 2026-04-29 11:43 | 69.04233 | 58.33531 | 32780 ft | 445 kts | 58° |
| 2026-04-29 11:43 | 69.07770 | 58.47763 | 32757 ft | 446 kts | 58° |
| 2026-04-29 11:44 | 69.11304 | 58.62028 | 32773 ft | 445 kts | 58° |
| 2026-04-29 11:44 | 69.14834 | 58.76323 | 32780 ft | 446 kts | 58° |
| 2026-04-29 11:45 | 69.18334 | 58.90684 | 32790 ft | 445 kts | 58° |
| 2026-04-29 11:45 | 69.21768 | 59.05186 | 32790 ft | 445 kts | 60° |
| 2026-04-29 11:46 | 69.25047 | 59.19870 | 32796 ft | 445 kts | 60° |
| 2026-04-29 11:46 | 69.28348 | 59.34625 | 32783 ft | 444 kts | 60° |
| 2026-04-29 11:47 | 69.31671 | 59.49316 | 32798 ft | 443 kts | 60° |
| 2026-04-29 11:47 | 69.35000 | 59.64026 | 32801 ft | 444 kts | 60° |
| 2026-04-29 11:48 | 69.38301 | 59.78656 | 32804 ft | 444 kts | 60° |
| 2026-04-29 11:48 | 69.41619 | 59.93440 | 32804 ft | 444 kts | 60° |
| 2026-04-29 11:49 | 69.44890 | 60.08316 | 32807 ft | 443 kts | 61° |
| 2026-04-29 11:49 | 69.48112 | 60.23297 | 32800 ft | 443 kts | 61° |
| 2026-04-29 11:50 | 69.51375 | 60.38223 | 32808 ft | 443 kts | 60° |
| 2026-04-29 11:50 | 69.54633 | 60.53163 | 32810 ft | 443 kts | 62° |
| 2026-04-29 11:51 | 69.57822 | 60.68250 | 32812 ft | 443 kts | 62° |
| 2026-04-29 11:51 | 69.61022 | 60.83349 | 32814 ft | 443 kts | 61° |
| 2026-04-29 11:52 | 69.64235 | 60.98443 | 32780 ft | 443 kts | 61° |
| 2026-04-29 11:52 | 69.67446 | 61.13543 | 32805 ft | 442 kts | 61° |
| 2026-04-29 11:53 | 69.70644 | 61.28658 | 32819 ft | 442 kts | 62° |
| 2026-04-29 11:53 | 69.73839 | 61.43818 | 32821 ft | 443 kts | 62° |
| 2026-04-29 11:54 | 69.76640 | 61.59494 | 32829 ft | 436 kts | 79° |
| 2026-04-29 11:54 | 69.77632 | 61.76665 | 32822 ft | 433 kts | 85° |
| 2026-04-29 11:55 | 69.78415 | 61.93942 | 32789 ft | 434 kts | 85° |
| 2026-04-29 11:55 | 69.79263 | 62.11208 | 32813 ft | 434 kts | 84° |
| 2026-04-29 11:56 | 69.80182 | 62.28457 | 32825 ft | 434 kts | 84° |
| 2026-04-29 11:56 | 69.81120 | 62.45705 | 32829 ft | 434 kts | 84° |
| 2026-04-29 11:57 | 69.82054 | 62.62983 | 32829 ft | 434 kts | 84° |
| 2026-04-29 11:57 | 69.82974 | 62.80260 | 32828 ft | 433 kts | 84° |
| 2026-04-29 11:58 | 69.83780 | 62.97521 | 32829 ft | 431 kts | 85° |
| 2026-04-29 11:58 | 69.84546 | 63.14754 | 32820 ft | 430 kts | 85° |
| 2026-04-29 11:59 | 69.85331 | 63.32000 | 32827 ft | 432 kts | 85° |
| 2026-04-29 11:59 | 69.86136 | 63.49265 | 32828 ft | 432 kts | 85° |
| 2026-04-29 12:00 | 69.86937 | 63.66453 | 32836 ft | 433 kts | 85° |
| 2026-04-29 12:00 | 69.87741 | 63.83754 | 32836 ft | 432 kts | 85° |
| 2026-04-29 12:01 | 69.88533 | 64.01029 | 32835 ft | 431 kts | 85° |
| 2026-04-29 12:01 | 69.89210 | 64.18297 | 32822 ft | 429 kts | 86° |
| 2026-04-29 12:02 | 69.89856 | 64.35562 | 32831 ft | 430 kts | 86° |
| 2026-04-29 12:02 | 69.90525 | 64.52882 | 32837 ft | 431 kts | 86° |
| 2026-04-29 12:03 | 69.91207 | 64.70109 | 32841 ft | 432 kts | 86° |
| 2026-04-29 12:03 | 69.91896 | 64.87459 | 32840 ft | 431 kts | 86° |
| 2026-04-29 12:04 | 69.92576 | 65.04647 | 32839 ft | 430 kts | 86° |
| 2026-04-29 12:04 | 69.93168 | 65.21941 | 32812 ft | 428 kts | 91° |
| 2026-04-29 12:05 | 69.93322 | 65.39212 | 32841 ft | 427 kts | 89° |
| 2026-04-29 12:05 | 69.93851 | 65.56453 | 32841 ft | 428 kts | 86° |
| 2026-04-29 12:06 | 69.94577 | 65.73696 | 32843 ft | 429 kts | 86° |
| 2026-04-29 12:06 | 69.95337 | 65.90964 | 32847 ft | 430 kts | 86° |
| 2026-04-29 12:07 | 69.96073 | 66.08316 | 32851 ft | 434 kts | 86° |
| 2026-04-29 12:07 | 69.96703 | 66.25916 | 32849 ft | 437 kts | 89° |
| 2026-04-29 12:08 | 69.97032 | 66.43531 | 32837 ft | 432 kts | 90° |
| 2026-04-29 12:08 | 69.97410 | 66.60974 | 32847 ft | 430 kts | 89° |
| 2026-04-29 12:09 | 69.97863 | 66.78432 | 32852 ft | 432 kts | 89° |
| 2026-04-29 12:09 | 69.98341 | 66.95940 | 32851 ft | 434 kts | 89° |
| 2026-04-29 12:10 | 69.98815 | 67.13503 | 32851 ft | 434 kts | 89° |
| 2026-04-29 12:10 | 69.99282 | 67.31060 | 32856 ft | 433 kts | 89° |
| 2026-04-29 12:11 | 69.99721 | 67.48559 | 32856 ft | 431 kts | 90° |
| 2026-04-29 12:11 | 70.00043 | 67.65932 | 32857 ft | 432 kts | 90° |
| 2026-04-29 12:12 | 70.00348 | 67.83461 | 32857 ft | 432 kts | 90° |
| 2026-04-29 12:12 | 70.00621 | 67.98038 | 32856 ft | 433 kts | 90° |
| 2026-04-29 12:13 | 70.00963 | 68.15614 | 32857 ft | 433 kts | 90° |
| 2026-04-29 12:13 | 70.01305 | 68.33201 | 32857 ft | 434 kts | 90° |
| 2026-04-29 12:14 | 70.01648 | 68.50793 | 32834 ft | 433 kts | 90° |
| 2026-04-29 12:14 | 70.01938 | 68.68310 | 32855 ft | 428 kts | 92° |
| 2026-04-29 12:15 | 70.01983 | 68.85706 | 32862 ft | 429 kts | 92° |
| 2026-04-29 12:15 | 70.02179 | 69.03186 | 32868 ft | 431 kts | 91° |
| 2026-04-29 12:16 | 70.02516 | 69.20690 | 32868 ft | 432 kts | 90° |
| 2026-04-29 12:16 | 70.02881 | 69.38210 | 32864 ft | 434 kts | 90° |
| 2026-04-29 12:17 | 70.03177 | 69.55996 | 32874 ft | 440 kts | 92° |
| 2026-04-29 12:17 | 70.03257 | 69.73723 | 32860 ft | 437 kts | 93° |
| 2026-04-29 12:18 | 70.03363 | 69.91463 | 32877 ft | 435 kts | 92° |
| 2026-04-29 12:18 | 70.03530 | 70.09180 | 32884 ft | 435 kts | 92° |
| 2026-04-29 12:19 | 70.03720 | 70.26894 | 32890 ft | 436 kts | 92° |
| 2026-04-29 12:19 | 70.03900 | 70.44651 | 32887 ft | 437 kts | 92° |
| 2026-04-29 12:20 | 70.04060 | 70.62427 | 32887 ft | 436 kts | 92° |
| 2026-04-29 12:20 | 70.04082 | 70.80145 | 32873 ft | 435 kts | 94° |
| 2026-04-29 12:21 | 70.04062 | 70.97837 | 32890 ft | 435 kts | 94° |
| 2026-04-29 12:21 | 70.04058 | 71.15572 | 32899 ft | 436 kts | 94° |
| 2026-04-29 12:22 | 70.04061 | 71.33325 | 32894 ft | 437 kts | 94° |
| 2026-04-29 12:22 | 70.04072 | 71.51105 | 32897 ft | 437 kts | 94° |
| 2026-04-29 12:23 | 70.04085 | 71.68887 | 32909 ft | 436 kts | 94° |
| 2026-04-29 12:23 | 70.04063 | 71.86581 | 32881 ft | 433 kts | 96° |
| 2026-04-29 12:24 | 70.03785 | 72.04173 | 32919 ft | 433 kts | 96° |
| 2026-04-29 12:24 | 70.03608 | 72.21839 | 32924 ft | 435 kts | 95° |
| 2026-04-29 12:25 | 70.03558 | 72.39575 | 32925 ft | 436 kts | 94° |
| 2026-04-29 12:26 | 70.03528 | 72.66160 | 32925 ft | 435 kts | 94° |
| 2026-04-29 12:26 | 70.03482 | 72.84040 | 32934 ft | 443 kts | 95° |
| 2026-04-29 12:27 | 70.03287 | 73.01930 | 32923 ft | 442 kts | 96° |
| 2026-04-29 12:27 | 70.03058 | 73.19856 | 32936 ft | 441 kts | 96° |
| 2026-04-29 12:28 | 70.02861 | 73.37778 | 32955 ft | 440 kts | 96° |
| 2026-04-29 12:28 | 70.02686 | 73.55670 | 32957 ft | 440 kts | 96° |
| 2026-04-29 12:29 | 70.02512 | 73.73574 | 32958 ft | 441 kts | 95° |
| 2026-04-29 12:29 | 70.02333 | 73.91511 | 32965 ft | 442 kts | 96° |
| 2026-04-29 12:30 | 70.02144 | 74.09484 | 32941 ft | 441 kts | 96° |
| 2026-04-29 12:30 | 70.01837 | 74.27410 | 32976 ft | 442 kts | 97° |
| 2026-04-29 12:31 | 70.01495 | 74.45241 | 32979 ft | 441 kts | 97° |
| 2026-04-29 12:31 | 70.01177 | 74.63094 | 32980 ft | 440 kts | 97° |
| 2026-04-29 12:32 | 70.00879 | 74.80842 | 32992 ft | 440 kts | 97° |
| 2026-04-29 12:32 | 70.00581 | 74.98574 | 32992 ft | 440 kts | 97° |
| 2026-04-29 12:33 | 70.00276 | 75.16468 | 32968 ft | 441 kts | 97° |
| 2026-04-29 12:33 | 69.99946 | 75.34424 | 32990 ft | 444 kts | 97° |
| 2026-04-29 12:34 | 69.99491 | 75.52444 | 32993 ft | 445 kts | 98° |
| 2026-04-29 12:34 | 69.99018 | 75.70419 | 33008 ft | 443 kts | 98° |
| 2026-04-29 12:35 | 69.98567 | 75.88325 | 33001 ft | 442 kts | 98° |
| 2026-04-29 12:35 | 69.98130 | 76.06309 | 33017 ft | 448 kts | 98° |
| 2026-04-29 12:36 | 69.97684 | 76.24519 | 32982 ft | 450 kts | 98° |
| 2026-04-29 12:36 | 69.97231 | 76.42711 | 33009 ft | 450 kts | 97° |
| 2026-04-29 12:37 | 69.96754 | 76.60899 | 33023 ft | 449 kts | 98° |
| 2026-04-29 12:37 | 69.96158 | 76.79045 | 33023 ft | 450 kts | 99° |
| 2026-04-29 12:38 | 69.95556 | 76.97192 | 33036 ft | 450 kts | 99° |
| 2026-04-29 12:38 | 69.94977 | 77.15379 | 33037 ft | 450 kts | 98° |
| 2026-04-29 12:39 | 69.94411 | 77.33474 | 33037 ft | 448 kts | 98° |
| 2026-04-29 12:39 | 69.93841 | 77.51416 | 33041 ft | 448 kts | 98° |
| 2026-04-29 12:40 | 69.93275 | 77.69521 | 33047 ft | 449 kts | 98° |
| 2026-04-29 12:40 | 69.92627 | 77.87620 | 33056 ft | 450 kts | 99° |
| 2026-04-29 12:41 | 69.91896 | 78.05698 | 33052 ft | 449 kts | 99° |
| 2026-04-29 12:41 | 69.91183 | 78.23720 | 33062 ft | 448 kts | 99° |
| 2026-04-29 12:42 | 69.90491 | 78.41712 | 33060 ft | 447 kts | 99° |
| 2026-04-29 12:42 | 69.89803 | 78.59696 | 33061 ft | 448 kts | 99° |
| 2026-04-29 12:43 | 69.89113 | 78.77702 | 33070 ft | 449 kts | 99° |
| 2026-04-29 12:43 | 69.88409 | 78.95732 | 33070 ft | 449 kts | 100° |
| 2026-04-29 12:44 | 69.87620 | 79.13741 | 33071 ft | 450 kts | 99° |
| 2026-04-29 12:44 | 69.86864 | 79.31743 | 33059 ft | 449 kts | 101° |
| 2026-04-29 12:45 | 69.85909 | 79.49698 | 33062 ft | 451 kts | 101° |
| 2026-04-29 12:45 | 69.84988 | 79.67541 | 33068 ft | 450 kts | 100° |
| 2026-04-29 12:46 | 69.84127 | 79.85473 | 33077 ft | 448 kts | 99° |
| 2026-04-29 12:46 | 69.83282 | 80.03364 | 33089 ft | 449 kts | 100° |
| 2026-04-29 12:47 | 69.82426 | 80.21279 | 33086 ft | 449 kts | 100° |
| 2026-04-29 12:47 | 69.81559 | 80.39219 | 33086 ft | 450 kts | 100° |
| 2026-04-29 12:48 | 69.80950 | 80.51848 | 33092 ft | 450 kts | 100° |
| 2026-04-29 12:48 | 69.80005 | 80.69756 | 33086 ft | 449 kts | 101° |
| 2026-04-29 12:49 | 69.78991 | 80.87540 | 33104 ft | 447 kts | 101° |
| 2026-04-29 12:49 | 69.77986 | 81.05235 | 33105 ft | 446 kts | 101° |
| 2026-04-29 12:50 | 69.76989 | 81.22975 | 33102 ft | 448 kts | 101° |
| 2026-04-29 12:50 | 69.75996 | 81.40759 | 33108 ft | 448 kts | 101° |
| 2026-04-29 12:51 | 69.75001 | 81.58540 | 33111 ft | 449 kts | 101° |
| 2026-04-29 12:51 | 69.73964 | 81.76320 | 33106 ft | 449 kts | 101° |
| 2026-04-29 12:52 | 69.72821 | 81.94009 | 33109 ft | 448 kts | 102° |
| 2026-04-29 12:52 | 69.71682 | 82.11694 | 33110 ft | 448 kts | 101° |
| 2026-04-29 12:53 | 69.70567 | 82.29366 | 33117 ft | 449 kts | 101° |
| 2026-04-29 12:53 | 69.69459 | 82.47036 | 33110 ft | 449 kts | 101° |
| 2026-04-29 12:54 | 69.68344 | 82.64775 | 33126 ft | 451 kts | 101° |
| 2026-04-29 12:54 | 69.67223 | 82.82539 | 33125 ft | 452 kts | 101° |
| 2026-04-29 12:55 | 69.66012 | 83.00295 | 33130 ft | 453 kts | 102° |
| 2026-04-29 12:55 | 69.64954 | 83.15008 | 33126 ft | 452 kts | 102° |
| 2026-04-29 12:56 | 69.63631 | 83.33676 | 33126 ft | 450 kts | 102° |
| 2026-04-29 12:56 | 69.62434 | 83.51307 | 33130 ft | 450 kts | 101° |
| 2026-04-29 12:57 | 69.61414 | 83.66096 | 33130 ft | 451 kts | 102° |
| 2026-04-29 12:57 | 69.60169 | 83.83748 | 33135 ft | 452 kts | 102° |
| 2026-04-29 12:57 | 69.59535 | 83.92584 | 32917 ft | 457 kts | 101° |
| 2026-04-29 12:58 | 69.58889 | 84.01609 | 32447 ft | 464 kts | 101° |
| 2026-04-29 12:58 | 69.58219 | 84.10611 | 32095 ft | 462 kts | 102° |
| 2026-04-29 12:58 | 69.57518 | 84.19584 | 31561 ft | 462 kts | 103° |
| 2026-04-29 12:58 | 69.56815 | 84.28432 | 30970 ft | 462 kts | 103° |
| 2026-04-29 12:59 | 69.56103 | 84.37408 | 30319 ft | 464 kts | 103° |
| 2026-04-29 12:59 | 69.55392 | 84.46434 | 29583 ft | 464 kts | 102° |
| 2026-04-29 12:59 | 69.54691 | 84.55398 | 28864 ft | 460 kts | 102° |
| 2026-04-29 12:59 | 69.54001 | 84.64276 | 28170 ft | 455 kts | 102° |
| 2026-04-29 13:00 | 69.53330 | 84.72935 | 27508 ft | 452 kts | 102° |
| 2026-04-29 13:00 | 69.52656 | 84.81661 | 26848 ft | 448 kts | 102° |
| 2026-04-29 13:00 | 69.51987 | 84.90309 | 26225 ft | 444 kts | 102° |
| 2026-04-29 13:00 | 69.51314 | 84.98885 | 25563 ft | 442 kts | 101° |
| 2026-04-29 13:01 | 69.50647 | 85.07440 | 24885 ft | 441 kts | 101° |
| 2026-04-29 13:01 | 69.49984 | 85.15982 | 24196 ft | 440 kts | 101° |
| 2026-04-29 13:01 | 69.49067 | 85.24293 | 23460 ft | 440 kts | 111° |
| 2026-04-29 13:01 | 69.47920 | 85.32370 | 22633 ft | 440 kts | 110° |
| 2026-04-29 13:02 | 69.46950 | 85.40629 | 21846 ft | 438 kts | 104° |
| 2026-04-29 13:02 | 69.46209 | 85.49003 | 21104 ft | 434 kts | 101° |
| 2026-04-29 13:02 | 69.45588 | 85.57379 | 20428 ft | 431 kts | 99° |
| 2026-04-29 13:02 | 69.45020 | 85.65704 | 19799 ft | 427 kts | 99° |
| 2026-04-29 13:03 | 69.44474 | 85.73965 | 19197 ft | 422 kts | 99° |
| 2026-04-29 13:03 | 69.43935 | 85.82125 | 18592 ft | 418 kts | 99° |
| 2026-04-29 13:03 | 69.43396 | 85.90192 | 17939 ft | 413 kts | 99° |
| 2026-04-29 13:03 | 69.42851 | 85.98108 | 17313 ft | 401 kts | 98° |
| 2026-04-29 13:04 | 69.42305 | 86.05856 | 16711 ft | 396 kts | 98° |
| 2026-04-29 13:04 | 69.41774 | 86.13474 | 16138 ft | 391 kts | 98° |
| 2026-04-29 13:04 | 69.41310 | 86.21026 | 15574 ft | 384 kts | 90° |
| 2026-04-29 13:04 | 69.41513 | 86.28452 | 14958 ft | 374 kts | 73° |
| 2026-04-29 13:05 | 69.42170 | 86.35551 | 14314 ft | 370 kts | 69° |
| 2026-04-29 13:05 | 69.42901 | 86.42459 | 13620 ft | 369 kts | 69° |
| 2026-04-29 13:05 | 69.43633 | 86.49447 | 12881 ft | 368 kts | 69° |
| 2026-04-29 13:05 | 69.44402 | 86.56346 | 12159 ft | 362 kts | 68° |
| 2026-04-29 13:06 | 69.45150 | 86.63090 | 11498 ft | 352 kts | 69° |
| 2026-04-29 13:06 | 69.45841 | 86.69688 | 10978 ft | 346 kts | 70° |
| 2026-04-29 13:06 | 69.46482 | 86.76185 | 10646 ft | 331 kts | 71° |
| 2026-04-29 13:06 | 69.47059 | 86.82295 | 10460 ft | 308 kts | 71° |
| 2026-04-29 13:07 | 69.47589 | 86.87992 | 10285 ft | 288 kts | 71° |
| 2026-04-29 13:07 | 69.48103 | 86.93464 | 9875 ft | 287 kts | 71° |
| 2026-04-29 13:07 | 69.48640 | 86.99079 | 8947 ft | 297 kts | 71° |
| 2026-04-29 13:07 | 69.49191 | 87.04764 | 8207 ft | 296 kts | 71° |
| 2026-04-29 13:08 | 69.49739 | 87.10375 | 7558 ft | 291 kts | 71° |
| 2026-04-29 13:08 | 69.50273 | 87.15887 | 6973 ft | 285 kts | 72° |
| 2026-04-29 13:08 | 69.50793 | 87.21290 | 6437 ft | 279 kts | 72° |
| 2026-04-29 13:08 | 69.51298 | 87.26572 | 5887 ft | 272 kts | 72° |
| 2026-04-29 13:09 | 69.51789 | 87.31703 | 5395 ft | 263 kts | 72° |
| 2026-04-29 13:09 | 69.52076 | 87.36761 | 4942 ft | 257 kts | 94° |
| 2026-04-29 13:09 | 69.51547 | 87.41508 | 4764 ft | 243 kts | 117° |
| 2026-04-29 13:09 | 69.50754 | 87.45467 | 4663 ft | 217 kts | 120° |
| 2026-04-29 13:10 | 69.50016 | 87.48907 | 4552 ft | 192 kts | 121° |
| 2026-04-29 13:10 | 69.49325 | 87.52001 | 4430 ft | 179 kts | 122° |
| 2026-04-29 13:10 | 69.48646 | 87.54940 | 4333 ft | 178 kts | 123° |
| 2026-04-29 13:10 | 69.47949 | 87.57900 | 4255 ft | 182 kts | 127° |
| 2026-04-29 13:11 | 69.46930 | 87.59914 | 4160 ft | 183 kts | 173° |
| 2026-04-29 13:11 | 69.45738 | 87.59106 | 4084 ft | 179 kts | 213° |
| 2026-04-29 13:11 | 69.44640 | 87.57374 | 3948 ft | 183 kts | 209° |
| 2026-04-29 13:11 | 69.43530 | 87.55618 | 3627 ft | 180 kts | 214° |
| 2026-04-29 13:12 | 69.42493 | 87.53723 | 3290 ft | 174 kts | 214° |
| 2026-04-29 13:12 | 69.41497 | 87.51933 | 3042 ft | 161 kts | 213° |
| 2026-04-29 13:12 | 69.40589 | 87.50283 | 2802 ft | 150 kts | 213° |
| 2026-04-29 13:12 | 69.39744 | 87.48751 | 2596 ft | 141 kts | 213° |
| 2026-04-29 13:13 | 69.38924 | 87.47267 | 2373 ft | 138 kts | 212° |
| 2026-04-29 13:13 | 69.38114 | 87.45804 | 2170 ft | 138 kts | 212° |
| 2026-04-29 13:13 | 69.37316 | 87.44359 | 1981 ft | 136 kts | 211° |
| 2026-04-29 13:13 | 69.36518 | 87.42922 | 1789 ft | 136 kts | 211° |
| 2026-04-29 13:14 | 69.35718 | 87.41494 | 1561 ft | 136 kts | 211° |
| 2026-04-29 13:14 | 69.34920 | 87.40053 | 1349 ft | 136 kts | 211° |
| 2026-04-29 13:14 | 69.34120 | 87.38606 | 1150 ft | 136 kts | 211° |
| 2026-04-29 13:14 | 69.33318 | 87.37136 | 962 ft | 138 kts | 212° |
| 2026-04-29 13:15 | 69.32510 | 87.35690 | 795 ft | 138 kts | 211° |
| 2026-04-29 13:15 | 69.31699 | 87.34259 | 623 ft | 135 kts | 210° |
| 2026-04-29 13:15 | 69.30979 | 87.32967 | 616 ft | 103 kts | 212° |